createdAt,value
2018-12-24T00:02:11.850Z,100998.61
2018-12-24T00:04:42.210Z,101000.59
2018-12-24T00:07:12.511Z,101008.73
2018-12-24T00:09:42.780Z,101009.73
2018-12-24T00:12:12.934Z,101015.92
2018-12-24T00:14:43.092Z,101012.00
2018-12-24T00:17:13.176Z,101019.00
2018-12-24T00:19:43.296Z,101027.62
2018-12-24T00:22:13.370Z,101032.20
2018-12-24T00:24:43.479Z,101032.72
2018-12-24T00:27:13.570Z,101045.77
2018-12-24T00:29:43.687Z,101043.18
2018-12-24T00:32:13.860Z,101055.72
2018-12-24T00:34:43.989Z,101057.16
2018-12-24T00:37:14.228Z,101061.98
2018-12-24T00:39:44.353Z,101060.84
2018-12-24T00:42:15.912Z,101064.16
2018-12-24T00:44:46.310Z,101070.23
2018-12-24T00:47:16.390Z,101079.52
2018-12-24T00:49:46.501Z,101083.28
2018-12-24T00:52:16.589Z,101082.06
2018-12-24T00:54:46.703Z,101084.64
2018-12-24T00:57:16.792Z,101089.53
2018-12-24T00:59:46.910Z,101093.08
2018-12-24T01:02:17.021Z,101101.14
2018-12-24T01:04:47.203Z,101103.17
2018-12-24T01:07:17.465Z,101108.33
2018-12-24T01:09:47.825Z,101122.45
2018-12-24T01:12:24.495Z,101129.71
2018-12-24T01:14:49.972Z,101139.53
2018-12-24T01:17:20.187Z,101135.37
2018-12-24T01:19:50.549Z,101145.41
2018-12-24T01:22:20.802Z,101143.48
2018-12-24T01:24:50.985Z,101148.63
2018-12-24T01:27:21.127Z,101162.98
2018-12-24T01:29:51.251Z,101165.59
2018-12-24T01:32:21.419Z,101172.41
2018-12-24T01:34:51.565Z,101180.48
2018-12-24T01:37:21.764Z,101183.23
2018-12-24T01:39:51.988Z,101190.50
2018-12-24T01:42:22.139Z,101194.42
2018-12-24T01:44:52.280Z,101201.51
2018-12-24T01:47:22.462Z,101203.09
2018-12-24T01:49:53.050Z,101214.57
2018-12-24T01:52:23.146Z,101220.07
2018-12-24T01:54:53.259Z,101223.59
2018-12-24T01:57:23.456Z,101229.05
2018-12-24T01:59:53.546Z,101238.36
2018-12-24T02:02:23.661Z,101236.55
2018-12-24T02:04:53.752Z,101232.44
2018-12-24T02:07:27.078Z,101250.37
2018-12-24T02:09:57.251Z,101268.06
2018-12-24T02:12:27.494Z,101258.13
2018-12-24T02:14:57.592Z,101269.98
2018-12-24T02:17:27.720Z,101274.10
2018-12-24T02:19:58.002Z,101280.82
2018-12-24T02:22:28.103Z,101285.33
2018-12-24T02:24:58.247Z,101295.15
2018-12-24T02:27:28.401Z,101301.57
2018-12-24T02:29:58.467Z,101307.94
2018-12-24T02:32:28.635Z,101311.30
2018-12-24T02:34:58.716Z,101315.64
2018-12-24T02:37:28.915Z,101317.66
2018-12-24T02:39:58.994Z,101327.27
2018-12-24T02:42:29.135Z,101331.19
2018-12-24T02:44:59.369Z,101337.50
2018-12-24T02:47:29.576Z,101349.81
2018-12-24T02:49:59.667Z,101347.89
2018-12-24T02:52:29.779Z,101357.38
2018-12-24T02:54:59.867Z,101362.06
2018-12-24T02:57:30.079Z,101369.81
2018-12-24T03:00:00.185Z,101375.86
2018-12-24T03:02:30.252Z,101381.49
2018-12-24T03:05:00.425Z,101385.39
2018-12-24T03:07:30.492Z,101393.87
2018-12-24T03:10:00.823Z,101389.88
2018-12-24T03:12:31.073Z,101390.64
2018-12-24T03:15:01.255Z,101399.02
2018-12-24T03:17:31.433Z,101396.83
2018-12-24T03:20:01.633Z,101407.05
2018-12-24T03:22:31.826Z,101411.12
2018-12-24T03:25:01.999Z,101415.58
2018-12-24T03:27:32.113Z,101421.23
2018-12-24T03:30:02.228Z,101431.54
2018-12-24T03:32:32.351Z,101436.33
2018-12-24T03:35:02.632Z,101442.43
2018-12-24T03:37:32.830Z,101449.92
2018-12-24T03:40:02.991Z,101452.55
2018-12-24T03:42:33.119Z,101463.98
2018-12-24T03:45:03.361Z,101472.91
2018-12-24T03:47:33.574Z,101479.30
2018-12-24T03:50:03.892Z,101495.89
2018-12-24T03:52:34.089Z,101499.02
2018-12-24T03:55:04.324Z,101498.16
2018-12-24T03:57:34.449Z,101509.02
2018-12-24T04:00:05.058Z,101518.58
2018-12-24T04:02:35.267Z,101517.16
2018-12-24T04:05:05.935Z,101527.96
2018-12-24T04:07:36.169Z,101527.69
2018-12-24T04:10:06.430Z,101532.70
2018-12-24T04:12:36.855Z,101532.68
2018-12-24T04:15:07.050Z,101540.23
2018-12-24T04:17:37.345Z,101540.80
2018-12-24T04:20:07.556Z,101542.41
2018-12-24T04:22:37.696Z,101553.67
2018-12-24T04:25:07.896Z,101557.70
2018-12-24T04:27:42.000Z,101560.79
2018-12-24T04:30:09.875Z,101571.23
2018-12-24T04:32:39.989Z,101567.83
2018-12-24T04:35:10.101Z,101578.77
2018-12-24T04:37:40.211Z,101584.31
2018-12-24T04:40:10.280Z,101592.20
2018-12-24T04:42:40.931Z,101595.48
2018-12-24T04:45:11.023Z,101606.91
2018-12-24T04:47:41.226Z,101617.81
2018-12-24T04:50:11.398Z,101610.48
2018-12-24T04:52:41.548Z,101621.80
2018-12-24T04:55:11.761Z,101632.58
2018-12-24T04:57:41.842Z,101643.83
2018-12-24T05:00:12.027Z,101650.81
2018-12-24T05:02:42.131Z,101648.59
2018-12-24T05:05:12.225Z,101661.34
2018-12-24T05:07:42.643Z,101664.14
2018-12-24T05:10:12.751Z,101663.77
2018-12-24T05:12:42.844Z,101669.09
2018-12-24T05:15:12.937Z,101678.45
2018-12-24T05:17:43.070Z,101688.55
2018-12-24T05:20:13.151Z,101701.55
2018-12-24T05:22:43.262Z,101700.56
2018-12-24T05:25:13.329Z,101709.27
2018-12-24T05:27:43.525Z,101721.80
2018-12-24T05:30:13.609Z,101735.80
2018-12-24T05:32:43.726Z,101749.09
2018-12-24T05:35:13.805Z,101766.31
2018-12-24T05:37:44.025Z,101765.66
2018-12-24T05:40:14.190Z,101787.99
2018-12-24T05:42:44.450Z,101791.98
2018-12-24T05:45:14.631Z,101804.67
2018-12-24T05:47:44.845Z,101805.86
2018-12-24T05:50:15.009Z,101820.80
2018-12-24T05:52:45.194Z,101829.66
2018-12-24T05:55:15.258Z,101832.86
2018-12-24T05:57:45.376Z,101848.02
2018-12-24T06:00:15.445Z,101844.77
2018-12-24T06:02:45.558Z,101857.72
2018-12-24T06:05:15.824Z,101864.37
2018-12-24T06:07:45.954Z,101869.69
2018-12-24T06:10:16.030Z,101878.65
2018-12-24T06:12:46.238Z,101890.27
2018-12-24T06:15:16.424Z,101890.94
2018-12-24T06:17:46.555Z,101899.73
2018-12-24T06:20:16.737Z,101904.06
2018-12-24T06:22:47.027Z,101918.31
2018-12-24T06:25:17.222Z,101926.10
2018-12-24T06:27:47.339Z,101929.72
2018-12-24T06:30:17.461Z,101942.31
2018-12-24T06:32:47.637Z,101950.30
2018-12-24T06:35:17.764Z,101964.14
2018-12-24T06:37:47.891Z,101964.87
2018-12-24T06:40:18.016Z,101980.16
2018-12-24T06:42:48.132Z,101987.77
2018-12-24T06:45:18.256Z,101986.82
2018-12-24T06:47:48.330Z,101997.53
2018-12-24T06:50:18.453Z,102012.03
2018-12-24T06:52:48.547Z,102017.02
2018-12-24T06:55:18.671Z,102021.11
2018-12-24T06:57:48.747Z,102028.58
2018-12-24T07:00:18.954Z,102036.59
2018-12-24T07:02:49.033Z,102036.40
2018-12-24T07:05:19.221Z,102036.42
2018-12-24T07:07:49.296Z,102038.26
2018-12-24T07:10:19.420Z,102050.38
2018-12-24T07:12:49.576Z,102058.13
2018-12-24T07:15:19.801Z,102055.66
2018-12-24T07:17:49.893Z,102063.49
2018-12-24T07:20:20.024Z,102066.97
2018-12-24T07:22:50.138Z,102066.73
2018-12-24T07:25:20.293Z,102077.17
2018-12-24T07:27:50.382Z,102074.46
2018-12-24T07:30:20.519Z,102081.72
2018-12-24T07:32:50.860Z,102079.12
2018-12-24T07:35:20.998Z,102086.47
2018-12-24T07:37:51.119Z,102088.44
2018-12-24T07:40:21.316Z,102084.17
2018-12-24T07:42:51.426Z,102089.19
2018-12-24T07:45:21.545Z,102089.88
2018-12-24T07:47:51.722Z,102091.05
2018-12-24T07:50:21.956Z,102100.87
2018-12-24T07:52:52.169Z,102097.55
2018-12-24T07:55:22.316Z,102105.83
2018-12-24T07:58:28.493Z,102109.81
2018-12-24T08:00:58.202Z,102112.52
2018-12-24T08:03:27.964Z,102125.77
2018-12-24T08:05:57.734Z,102125.42
2018-12-24T08:08:27.448Z,102134.05
2018-12-24T08:10:57.508Z,102138.72
2018-12-24T08:13:27.250Z,102146.20
2018-12-24T08:15:56.949Z,102150.66
2018-12-24T08:18:26.627Z,102154.27
2018-12-24T08:20:56.471Z,102163.88
2018-12-24T08:23:26.141Z,102166.61
2018-12-24T08:25:55.923Z,102177.80
2018-12-24T08:28:25.616Z,102185.02
2018-12-24T08:30:55.369Z,102187.02
2018-12-24T08:33:25.058Z,102198.21
2018-12-24T08:35:54.919Z,102200.66
2018-12-24T08:38:24.615Z,102206.53
2018-12-24T08:40:54.308Z,102214.99
2018-12-24T08:43:23.973Z,102215.86
2018-12-24T08:45:53.724Z,102223.37
2018-12-24T08:48:23.430Z,102232.55
2018-12-24T08:50:53.157Z,102237.02
2018-12-24T08:53:22.850Z,102231.44
2018-12-24T08:55:52.631Z,102234.28
2018-12-24T08:58:25.523Z,102246.05
2018-12-24T09:00:55.231Z,102247.77
2018-12-24T09:03:25.135Z,102252.84
2018-12-24T09:05:54.792Z,102247.41
2018-12-24T09:08:24.567Z,102250.55
2018-12-24T09:10:54.292Z,102252.91
2018-12-24T09:13:23.951Z,102262.75
2018-12-24T09:15:53.638Z,102265.80
2018-12-24T09:18:23.344Z,102269.08
2018-12-24T09:20:53.153Z,102279.72
2018-12-24T09:23:22.933Z,102272.53
2018-12-24T09:25:52.661Z,102282.67
2018-12-24T09:28:22.465Z,102289.80
2018-12-24T09:30:53.041Z,102293.72
2018-12-24T09:33:22.799Z,102297.02
2018-12-24T09:35:53.695Z,102304.54
2018-12-24T09:38:23.448Z,102307.92
2018-12-24T09:40:53.113Z,102310.67
2018-12-24T09:43:22.812Z,102305.35
2018-12-24T09:45:52.572Z,102312.72
2018-12-24T09:48:22.424Z,102314.92
2018-12-24T09:50:52.207Z,102317.11
2018-12-24T09:53:27.398Z,102321.50
2018-12-24T09:55:57.179Z,102330.20
2018-12-24T09:58:26.963Z,102326.00
2018-12-24T10:00:56.904Z,102331.53
2018-12-24T10:03:31.204Z,102335.08
2018-12-24T10:06:16.810Z,102339.80
2018-12-24T10:08:46.583Z,102346.88
2018-12-24T10:11:16.287Z,102347.81
2018-12-24T10:13:45.991Z,102351.57
2018-12-24T10:16:15.863Z,102365.62
2018-12-24T10:18:45.644Z,102374.30
2018-12-24T10:21:15.333Z,102369.36
2018-12-24T10:23:45.019Z,102379.14
2018-12-24T10:26:14.743Z,102375.41
2018-12-24T10:28:44.627Z,102369.10
2018-12-24T10:31:14.343Z,102364.71
2018-12-24T10:33:44.014Z,102374.08
2018-12-24T10:36:13.771Z,102366.23
2018-12-24T10:38:43.552Z,102370.34
2018-12-24T10:41:16.145Z,102372.20
2018-12-24T10:43:48.913Z,102373.09
2018-12-24T10:46:18.722Z,102375.93
2018-12-24T10:48:48.401Z,102372.50
2018-12-24T10:51:18.147Z,102378.84
2018-12-24T10:53:47.833Z,102380.10
2018-12-24T10:56:17.531Z,102381.14
2018-12-24T10:58:47.198Z,102382.36
2018-12-24T11:01:16.902Z,102392.32
2018-12-24T11:03:46.613Z,102389.27
2018-12-24T11:06:16.627Z,102382.21
2018-12-24T11:08:46.383Z,102385.45
2018-12-24T11:11:16.081Z,102400.32
2018-12-24T11:13:45.750Z,102390.66
2018-12-24T11:16:15.576Z,102398.03
2018-12-24T11:18:45.351Z,102395.30
2018-12-24T11:21:15.125Z,102387.30
2018-12-24T11:23:44.840Z,102390.89
2018-12-24T11:26:14.620Z,102391.25
2018-12-24T11:28:44.389Z,102399.78
2018-12-24T11:31:14.136Z,102390.66
2018-12-24T11:33:43.802Z,102385.42
2018-12-24T11:36:13.558Z,102389.59
2018-12-24T11:38:43.373Z,102388.16
2018-12-24T11:41:13.145Z,102396.41
2018-12-24T11:43:42.898Z,102391.55
2018-12-24T11:46:12.703Z,102393.72
2018-12-24T11:48:42.457Z,102402.51
2018-12-24T11:51:12.256Z,102397.67
2018-12-24T11:53:41.992Z,102397.83
2018-12-24T11:56:11.803Z,102397.94
2018-12-24T11:58:41.598Z,102403.98
2018-12-24T12:01:11.344Z,102402.69
2018-12-24T12:03:41.039Z,102404.38
2018-12-24T12:06:19.494Z,102404.35
2018-12-24T12:08:42.428Z,102409.34
2018-12-24T12:11:12.173Z,102417.53
2018-12-24T12:13:41.905Z,102425.22
2018-12-24T12:16:11.638Z,102425.73
2018-12-24T12:18:41.338Z,102408.08
2018-12-24T12:21:11.094Z,102410.27
2018-12-24T12:23:40.910Z,102411.66
2018-12-24T12:26:10.621Z,102411.33
2018-12-24T12:28:40.452Z,102411.30
2018-12-24T12:31:10.326Z,102403.27
2018-12-24T12:33:40.004Z,102409.25
2018-12-24T12:36:09.885Z,102416.31
2018-12-24T12:38:39.564Z,102421.25
2018-12-24T12:41:09.332Z,102425.88
2018-12-24T12:43:39.015Z,102421.30
2018-12-24T12:46:08.781Z,102421.56
2018-12-24T12:48:38.450Z,102421.41
2018-12-24T12:51:08.218Z,102420.60
2018-12-24T12:53:38.065Z,102419.97
2018-12-24T12:56:07.809Z,102424.00
2018-12-24T12:58:37.535Z,102430.05
2018-12-24T13:01:07.306Z,102430.09
2018-12-24T13:03:37.011Z,102425.69
2018-12-24T13:06:06.679Z,102421.52
2018-12-24T13:08:36.345Z,102429.39
2018-12-24T13:11:06.047Z,102439.02
2018-12-24T13:13:36.838Z,102442.97
2018-12-24T13:16:06.891Z,102437.10
2018-12-24T13:18:36.649Z,102437.47
2018-12-24T13:21:06.411Z,102443.78
2018-12-24T13:23:36.085Z,102447.65
2018-12-24T13:26:05.792Z,102451.91
2018-12-24T13:28:35.473Z,102459.92
2018-12-24T13:31:05.310Z,102467.83
2018-12-24T13:33:35.101Z,102467.87
2018-12-24T13:36:04.935Z,102465.17
2018-12-24T13:38:34.681Z,102461.95
2018-12-24T13:41:04.436Z,102453.39
2018-12-24T13:43:35.354Z,102454.86
2018-12-24T13:46:08.277Z,102457.86
2018-12-24T13:48:38.215Z,102463.33
2018-12-24T13:51:08.253Z,102467.64
2018-12-24T13:53:41.847Z,102469.08
2018-12-24T13:56:09.384Z,102476.55
2018-12-24T13:58:39.261Z,102476.28
2018-12-24T14:01:08.988Z,102474.11
2018-12-24T14:03:38.723Z,102469.08
2018-12-24T14:06:08.476Z,102467.19
2018-12-24T14:08:38.161Z,102470.08
2018-12-24T14:11:07.909Z,102470.88
2018-12-24T14:13:37.620Z,102464.42
2018-12-24T14:16:07.365Z,102457.63
2018-12-24T14:18:37.232Z,102464.05
2018-12-24T14:21:06.960Z,102454.16
2018-12-24T14:23:36.642Z,102449.63
2018-12-24T14:26:06.483Z,102465.75
2018-12-24T14:28:36.168Z,102470.37
2018-12-24T14:31:06.247Z,102465.72
2018-12-24T14:33:36.003Z,102462.20
2018-12-24T14:36:05.771Z,102462.83
2018-12-24T14:38:35.505Z,102468.11
2018-12-24T14:41:05.401Z,102471.84
2018-12-24T14:43:35.155Z,102476.55
2018-12-24T14:46:05.315Z,102474.66
2018-12-24T14:48:35.069Z,102476.59
2018-12-24T14:51:04.884Z,102479.26
2018-12-24T14:53:34.571Z,102480.21
2018-12-24T14:56:04.284Z,102471.80
2018-12-24T14:58:34.040Z,102483.19
2018-12-24T15:01:04.055Z,102476.03
2018-12-24T15:03:33.856Z,102475.31
2018-12-24T15:06:03.732Z,102471.28
2018-12-24T15:08:33.715Z,102469.09
2018-12-24T15:11:03.404Z,102474.27
2018-12-24T15:13:33.164Z,102472.38
2018-12-24T15:16:02.852Z,102475.35
2018-12-24T15:18:32.496Z,102475.06
2018-12-24T15:21:02.231Z,102482.91
2018-12-24T15:23:31.906Z,102481.14
2018-12-24T15:26:01.586Z,102484.95
2018-12-24T15:28:31.299Z,102487.93
2018-12-24T15:31:01.057Z,102495.56
2018-12-24T15:33:30.768Z,102499.89
2018-12-24T15:36:00.512Z,102488.56
2018-12-24T15:38:30.226Z,102489.49
2018-12-24T15:40:59.905Z,102485.38
2018-12-24T15:43:29.605Z,102491.17
2018-12-24T15:45:59.318Z,102503.73
2018-12-24T15:48:29.005Z,102502.51
2018-12-24T15:50:58.671Z,102503.45
2018-12-24T15:53:28.467Z,102510.43
2018-12-24T15:55:58.247Z,102515.70
2018-12-24T15:58:28.002Z,102515.08
2018-12-24T16:00:57.773Z,102513.19
2018-12-24T16:03:27.532Z,102517.03
2018-12-24T16:05:57.213Z,102518.45
2018-12-24T16:08:26.961Z,102524.91
2018-12-24T16:10:56.704Z,102520.35
2018-12-24T16:13:26.467Z,102522.10
2018-12-24T16:15:56.248Z,102533.55
2018-12-24T16:18:25.931Z,102536.34
2018-12-24T16:20:55.697Z,102529.80
2018-12-24T16:23:25.387Z,102529.37
2018-12-24T16:25:55.090Z,102526.95
2018-12-24T16:28:24.825Z,102531.22
2018-12-24T16:30:54.506Z,102535.97
2018-12-24T16:33:24.269Z,102540.47
2018-12-24T16:35:53.955Z,102532.17
2018-12-24T16:38:23.636Z,102544.89
2018-12-24T16:40:53.368Z,102535.82
2018-12-24T16:43:23.482Z,102530.65
2018-12-24T16:45:53.278Z,102522.82
2018-12-24T16:48:22.962Z,102524.81
2018-12-24T16:50:52.717Z,102531.55
2018-12-24T16:53:22.463Z,102530.70
2018-12-24T16:55:52.150Z,102536.20
2018-12-24T16:58:21.890Z,102519.97
2018-12-24T17:00:51.571Z,102519.07
2018-12-24T17:03:21.236Z,102526.09
2018-12-24T17:05:51.006Z,102535.20
2018-12-24T17:08:20.673Z,102534.97
2018-12-24T17:10:50.370Z,102536.44
2018-12-24T17:13:20.105Z,102536.44
2018-12-24T17:15:49.783Z,102534.55
2018-12-24T17:18:19.557Z,102527.05
2018-12-24T17:20:49.238Z,102520.63
2018-12-24T17:23:18.961Z,102530.84
2018-12-24T17:25:48.651Z,102532.55
2018-12-24T17:28:18.343Z,102536.25
2018-12-24T17:30:48.077Z,102535.34
2018-12-24T17:33:17.782Z,102536.62
2018-12-24T17:35:47.488Z,102528.80
2018-12-24T17:38:17.187Z,102520.96
2018-12-24T17:40:46.896Z,102516.32
2018-12-24T17:43:16.700Z,102512.63
2018-12-24T17:45:46.477Z,102507.40
2018-12-24T17:48:16.200Z,102515.94
2018-12-24T17:50:45.989Z,102511.85
2018-12-24T17:53:15.661Z,102513.77
2018-12-24T17:55:45.578Z,102508.58
2018-12-24T17:58:15.249Z,102508.63
2018-12-24T18:00:44.929Z,102509.00
2018-12-24T18:03:14.664Z,102503.75
2018-12-24T18:05:44.532Z,102493.08
2018-12-24T18:08:14.207Z,102490.97
2018-12-24T18:10:43.955Z,102502.38
2018-12-24T18:13:13.623Z,102502.19
2018-12-24T18:15:43.339Z,102510.92
2018-12-24T18:18:13.016Z,102521.30
2018-12-24T18:20:42.773Z,102527.55
2018-12-24T18:23:12.441Z,102529.41
2018-12-24T18:25:42.105Z,102531.31
2018-12-24T18:28:11.788Z,102537.49
2018-12-24T18:30:41.527Z,102535.34
2018-12-24T18:33:11.262Z,102543.56
2018-12-24T18:35:41.007Z,102541.48
2018-12-24T18:38:10.771Z,102544.13
2018-12-24T18:40:40.516Z,102547.64
2018-12-24T18:43:10.287Z,102560.50
2018-12-24T18:45:39.963Z,102563.92
2018-12-24T18:48:09.667Z,102569.00
2018-12-24T18:50:39.334Z,102572.33
2018-12-24T18:53:09.035Z,102564.02
2018-12-24T18:55:38.716Z,102573.38
2018-12-24T18:58:08.416Z,102580.20
2018-12-24T19:00:38.101Z,102583.95
2018-12-24T19:03:07.828Z,102585.38
2018-12-24T19:05:37.546Z,102590.14
2018-12-24T19:08:07.200Z,102601.89
2018-12-24T19:10:36.902Z,102601.57
2018-12-24T19:13:06.591Z,102600.29
2018-12-24T19:15:36.229Z,102603.67
2018-12-24T19:18:08.692Z,102608.67
2018-12-24T19:20:38.409Z,102615.80
2018-12-24T19:23:08.083Z,102620.83
2018-12-24T19:25:37.796Z,102621.17
2018-12-24T19:28:07.462Z,102622.55
2018-12-24T19:30:37.264Z,102630.66
2018-12-24T19:33:07.035Z,102634.19
2018-12-24T19:35:36.752Z,102637.31
2018-12-24T19:38:06.512Z,102637.59
2018-12-24T19:40:36.235Z,102638.50
2018-12-24T19:43:05.912Z,102648.33
2018-12-24T19:45:35.622Z,102646.86
2018-12-24T19:48:05.404Z,102643.57
2018-12-24T19:50:35.086Z,102652.12
2018-12-24T19:53:04.823Z,102653.38
2018-12-24T19:55:34.606Z,102644.63
2018-12-24T19:58:04.283Z,102643.86
2018-12-24T20:00:33.945Z,102652.70
2018-12-24T20:03:03.724Z,102651.57
2018-12-24T20:05:33.480Z,102653.38
2018-12-24T20:08:03.265Z,102660.87
2018-12-24T20:10:32.985Z,102667.38
2018-12-24T20:13:02.652Z,102665.01
2018-12-24T20:15:32.459Z,102662.73
2018-12-24T20:18:02.170Z,102668.20
2018-12-24T20:20:31.856Z,102679.16
2018-12-24T20:23:01.609Z,102670.19
2018-12-24T20:25:31.276Z,102672.81
2018-12-24T20:28:00.962Z,102662.31
2018-12-24T20:30:30.694Z,102666.05
2018-12-24T20:33:00.392Z,102676.83
2018-12-24T20:35:30.084Z,102682.00
2018-12-24T20:37:59.899Z,102679.78
2018-12-24T20:40:29.635Z,102686.67
2018-12-24T20:42:59.374Z,102682.25
2018-12-24T20:45:29.154Z,102677.83
2018-12-24T20:48:06.481Z,102674.03
2018-12-24T20:50:30.299Z,102674.31
2018-12-24T20:52:59.970Z,102670.47
2018-12-24T20:55:29.676Z,102661.60
2018-12-24T20:57:59.366Z,102661.41
2018-12-24T21:00:29.087Z,102661.55
2018-12-24T21:02:58.934Z,102653.63
2018-12-24T21:05:28.681Z,102656.99
2018-12-24T21:07:58.451Z,102663.22
2018-12-24T21:10:28.215Z,102657.76
2018-12-24T21:12:57.913Z,102653.77
2018-12-24T21:15:27.599Z,102664.09
2018-12-24T21:17:57.258Z,102663.31
2018-12-24T21:20:27.041Z,102657.53
2018-12-24T21:22:56.805Z,102657.82
2018-12-24T21:25:26.513Z,102652.25
2018-12-24T21:27:56.262Z,102657.63
2018-12-24T21:30:25.963Z,102662.95
2018-12-24T21:32:55.663Z,102658.29
2018-12-24T21:35:25.402Z,102678.58
2018-12-24T21:37:55.260Z,102674.53
2018-12-24T21:40:24.963Z,102663.19
2018-12-24T21:42:54.951Z,102663.89
2018-12-24T21:45:24.750Z,102668.66
2018-12-24T21:47:54.430Z,102667.70
2018-12-24T21:50:24.139Z,102659.23
2018-12-24T21:52:53.816Z,102666.88
2018-12-24T21:55:23.572Z,102662.09
2018-12-24T21:57:53.548Z,102658.20
2018-12-24T22:00:23.309Z,102670.11
2018-12-24T22:02:53.043Z,102669.77
2018-12-24T22:05:22.841Z,102660.94
2018-12-24T22:07:52.511Z,102660.46
2018-12-24T22:10:22.223Z,102669.45
2018-12-24T22:12:51.892Z,102660.98
2018-12-24T22:15:21.619Z,102663.50
2018-12-24T22:17:51.288Z,102672.48
2018-12-24T22:20:21.044Z,102662.46
2018-12-24T22:22:50.734Z,102668.16
2018-12-24T22:25:20.438Z,102666.16
2018-12-24T22:27:50.290Z,102670.02
2018-12-24T22:30:19.952Z,102668.86
2018-12-24T22:32:49.674Z,102669.49
2018-12-24T22:35:19.391Z,102682.47
2018-12-24T22:37:49.060Z,102670.86
2018-12-24T22:40:18.782Z,102663.83
2018-12-24T22:42:48.581Z,102660.33
2018-12-24T22:45:18.468Z,102664.83
2018-12-24T22:47:48.235Z,102659.55
2018-12-24T22:50:17.923Z,102655.75
2018-12-24T22:52:47.640Z,102644.09
2018-12-24T22:55:17.602Z,102648.91
2018-12-24T22:57:47.307Z,102643.39
2018-12-24T23:00:32.119Z,102633.93
2018-12-24T23:03:01.886Z,102652.38
2018-12-24T23:05:31.691Z,102656.19
2018-12-24T23:08:01.346Z,102668.39
2018-12-24T23:10:31.279Z,102661.25
2018-12-24T23:13:01.033Z,102657.92
2018-12-24T23:15:30.705Z,102650.31
2018-12-24T23:18:00.502Z,102664.11
2018-12-24T23:20:30.268Z,102660.55
2018-12-24T23:23:03.095Z,102656.45
2018-12-24T23:25:33.300Z,102653.53
2018-12-24T23:28:02.985Z,102649.91
2018-12-24T23:30:44.052Z,102640.70
2018-12-24T23:33:22.871Z,102645.21
2018-12-24T23:36:00.393Z,102649.35
2018-12-24T23:38:32.984Z,102661.37
2018-12-24T23:41:07.194Z,102654.38
2018-12-24T23:43:42.850Z,102660.26
2018-12-24T23:46:13.682Z,102660.11
2018-12-24T23:48:43.439Z,102663.55
2018-12-24T23:51:13.427Z,102661.41
2018-12-24T23:53:43.176Z,102655.59
2018-12-24T23:56:13.049Z,102652.09
2018-12-24T23:58:42.808Z,102652.87
